sensor_id;sensor_type;location;lat;lon;timestamp;temperature;humidity
46552;DHT22;32278;51.810;4.712;2022-09-29T00:00:08;10.20;99.90
46552;DHT22;32278;51.810;4.712;2022-09-29T00:02:34;10.30;99.90
46552;DHT22;32278;51.810;4.712;2022-09-29T00:04:59;10.30;99.90
46552;DHT22;32278;51.810;4.712;2022-09-29T00:07:25;10.30;99.90
46552;DHT22;32278;51.810;4.712;2022-09-29T00:09:50;10.20;99.90
46552;DHT22;32278;51.810;4.712;2022-09-29T00:12:16;10.10;99.90
46552;DHT22;32278;51.810;4.712;2022-09-29T00:14:41;10.10;99.90
46552;DHT22;32278;51.810;4.712;2022-09-29T00:17:07;10.10;99.90
46552;DHT22;32278;51.810;4.712;2022-09-29T00:19:32;10.00;99.90
46552;DHT22;32278;51.810;4.712;2022-09-29T00:21:58;10.10;99.90
46552;DHT22;32278;51.810;4.712;2022-09-29T00:24:24;10.00;99.90
46552;DHT22;32278;51.810;4.712;2022-09-29T00:26:50;10.10;99.90
46552;DHT22;32278;51.810;4.712;2022-09-29T00:29:16;10.20;99.90
46552;DHT22;32278;51.810;4.712;2022-09-29T00:31:41;10.10;99.90
46552;DHT22;32278;51.810;4.712;2022-09-29T00:34:07;10.10;99.90
46552;DHT22;32278;51.810;4.712;2022-09-29T00:36:33;10.00;99.90
46552;DHT22;32278;51.810;4.712;2022-09-29T00:38:58;9.90;99.90
46552;DHT22;32278;51.810;4.712;2022-09-29T00:41:27;9.90;99.90
46552;DHT22;32278;51.810;4.712;2022-09-29T00:43:58;9.90;99.90
46552;DHT22;32278;51.810;4.712;2022-09-29T00:46:46;9.90;99.90
46552;DHT22;32278;51.810;4.712;2022-09-29T00:49:18;9.80;99.90
46552;DHT22;32278;51.810;4.712;2022-09-29T00:54:38;9.80;99.90
46552;DHT22;32278;51.810;4.712;2022-09-29T00:57:05;9.80;99.90
46552;DHT22;32278;51.810;4.712;2022-09-29T00:59:40;9.80;99.90
46552;DHT22;32278;51.810;4.712;2022-09-29T01:02:06;9.70;99.90
46552;DHT22;32278;51.810;4.712;2022-09-29T01:04:33;9.70;99.90
46552;DHT22;32278;51.810;4.712;2022-09-29T01:06:59;9.80;99.90
46552;DHT22;32278;51.810;4.712;2022-09-29T01:09:31;9.70;99.90
46552;DHT22;32278;51.810;4.712;2022-09-29T01:12:00;9.80;99.90
46552;DHT22;32278;51.810;4.712;2022-09-29T01:14:27;9.70;99.90
46552;DHT22;32278;51.810;4.712;2022-09-29T01:16:53;9.70;99.90
46552;DHT22;32278;51.810;4.712;2022-09-29T01:22:03;9.70;99.90
46552;DHT22;32278;51.810;4.712;2022-09-29T01:27:08;9.70;99.90
46552;DHT22;32278;51.810;4.712;2022-09-29T01:30:01;9.50;99.90
46552;DHT22;32278;51.810;4.712;2022-09-29T01:32:29;9.60;99.90
46552;DHT22;32278;51.810;4.712;2022-09-29T01:35:29;9.60;99.90
46552;DHT22;32278;51.810;4.712;2022-09-29T01:38:18;9.50;99.90
46552;DHT22;32278;51.810;4.712;2022-09-29T01:40:49;9.50;99.90
46552;DHT22;32278;51.810;4.712;2022-09-29T01:43:26;9.60;99.90
46552;DHT22;32278;51.810;4.712;2022-09-29T01:46:03;9.50;99.90
46552;DHT22;32278;51.810;4.712;2022-09-29T01:48:35;9.50;99.90
46552;DHT22;32278;51.810;4.712;2022-09-29T01:51:06;9.40;99.90
46552;DHT22;32278;51.810;4.712;2022-09-29T01:53:38;9.30;99.90
46552;DHT22;32278;51.810;4.712;2022-09-29T01:56:15;9.30;99.90
46552;DHT22;32278;51.810;4.712;2022-09-29T01:59:07;9.30;99.90
46552;DHT22;32278;51.810;4.712;2022-09-29T02:01:39;9.30;99.90
46552;DHT22;32278;51.810;4.712;2022-09-29T02:04:27;9.30;99.90
46552;DHT22;32278;51.810;4.712;2022-09-29T02:07:04;9.30;99.90
46552;DHT22;32278;51.810;4.712;2022-09-29T02:09:37;9.40;99.90
46552;DHT22;32278;51.810;4.712;2022-09-29T02:12:04;9.40;99.90
46552;DHT22;32278;51.810;4.712;2022-09-29T02:14:37;9.30;99.90
46552;DHT22;32278;51.810;4.712;2022-09-29T02:17:14;9.20;99.90
46552;DHT22;32278;51.810;4.712;2022-09-29T02:19:45;9.30;99.90
46552;DHT22;32278;51.810;4.712;2022-09-29T02:22:12;9.40;99.90
46552;DHT22;32278;51.810;4.712;2022-09-29T02:24:38;9.30;99.90
46552;DHT22;32278;51.810;4.712;2022-09-29T02:27:04;9.40;99.90
46552;DHT22;32278;51.810;4.712;2022-09-29T02:29:32;9.30;99.90
46552;DHT22;32278;51.810;4.712;2022-09-29T02:31:58;9.20;99.90
46552;DHT22;32278;51.810;4.712;2022-09-29T02:34:28;9.30;99.90
46552;DHT22;32278;51.810;4.712;2022-09-29T02:39:59;9.20;99.90
46552;DHT22;32278;51.810;4.712;2022-09-29T02:50:39;9.30;99.90
46552;DHT22;32278;51.810;4.712;2022-09-29T02:55:42;9.40;99.90
46552;DHT22;32278;51.810;4.712;2022-09-29T02:58:34;9.40;99.90
46552;DHT22;32278;51.810;4.712;2022-09-29T03:01:02;9.40;99.90
46552;DHT22;32278;51.810;4.712;2022-09-29T03:03:29;9.30;99.90
46552;DHT22;32278;51.810;4.712;2022-09-29T03:05:55;9.30;99.90
46552;DHT22;32278;51.810;4.712;2022-09-29T03:08:21;9.20;99.90
46552;DHT22;32278;51.810;4.712;2022-09-29T03:10:46;9.30;99.90
46552;DHT22;32278;51.810;4.712;2022-09-29T03:13:12;9.20;99.90
46552;DHT22;32278;51.810;4.712;2022-09-29T03:15:37;9.10;99.90
46552;DHT22;32278;51.810;4.712;2022-09-29T03:18:03;9.10;99.90
46552;DHT22;32278;51.810;4.712;2022-09-29T03:20:28;9.10;99.90
46552;DHT22;32278;51.810;4.712;2022-09-29T03:22:55;9.00;99.90
46552;DHT22;32278;51.810;4.712;2022-09-29T03:25:22;9.00;99.90
46552;DHT22;32278;51.810;4.712;2022-09-29T03:27:49;9.00;99.90
46552;DHT22;32278;51.810;4.712;2022-09-29T03:30:15;9.00;99.90
46552;DHT22;32278;51.810;4.712;2022-09-29T03:32:42;8.90;99.90
46552;DHT22;32278;51.810;4.712;2022-09-29T03:35:08;9.00;99.90
46552;DHT22;32278;51.810;4.712;2022-09-29T03:37:34;9.00;99.90
46552;DHT22;32278;51.810;4.712;2022-09-29T03:40:00;9.00;99.90
46552;DHT22;32278;51.810;4.712;2022-09-29T03:42:26;8.90;99.90
46552;DHT22;32278;51.810;4.712;2022-09-29T03:44:53;8.90;99.90
46552;DHT22;32278;51.810;4.712;2022-09-29T03:47:18;8.90;99.90
46552;DHT22;32278;51.810;4.712;2022-09-29T03:49:44;8.90;99.90
46552;DHT22;32278;51.810;4.712;2022-09-29T03:52:09;8.90;99.90
46552;DHT22;32278;51.810;4.712;2022-09-29T03:54:35;8.90;99.90
46552;DHT22;32278;51.810;4.712;2022-09-29T03:57:00;8.80;99.90
46552;DHT22;32278;51.810;4.712;2022-09-29T03:59:26;8.80;99.90
46552;DHT22;32278;51.810;4.712;2022-09-29T04:01:52;8.90;99.90
46552;DHT22;32278;51.810;4.712;2022-09-29T04:04:17;8.90;99.90
46552;DHT22;32278;51.810;4.712;2022-09-29T04:06:43;8.90;99.90
46552;DHT22;32278;51.810;4.712;2022-09-29T04:09:08;8.90;99.90
46552;DHT22;32278;51.810;4.712;2022-09-29T04:11:34;9.00;99.90
46552;DHT22;32278;51.810;4.712;2022-09-29T04:13:59;8.90;99.90
46552;DHT22;32278;51.810;4.712;2022-09-29T04:16:25;8.90;99.90
46552;DHT22;32278;51.810;4.712;2022-09-29T04:18:51;8.90;99.90
46552;DHT22;32278;51.810;4.712;2022-09-29T04:21:16;8.80;99.90
46552;DHT22;32278;51.810;4.712;2022-09-29T04:23:42;8.90;99.90
46552;DHT22;32278;51.810;4.712;2022-09-29T04:26:07;9.00;99.90
46552;DHT22;32278;51.810;4.712;2022-09-29T04:28:35;8.90;99.90
46552;DHT22;32278;51.810;4.712;2022-09-29T04:31:01;9.10;99.90
46552;DHT22;32278;51.810;4.712;2022-09-29T04:33:27;9.30;99.90
46552;DHT22;32278;51.810;4.712;2022-09-29T04:35:54;9.10;99.90
46552;DHT22;32278;51.810;4.712;2022-09-29T04:38:20;9.10;99.90
46552;DHT22;32278;51.810;4.712;2022-09-29T04:40:46;9.20;99.90
46552;DHT22;32278;51.810;4.712;2022-09-29T04:43:12;9.20;99.90
46552;DHT22;32278;51.810;4.712;2022-09-29T04:45:38;9.20;99.90
46552;DHT22;32278;51.810;4.712;2022-09-29T04:48:03;9.10;99.90
46552;DHT22;32278;51.810;4.712;2022-09-29T04:50:29;9.10;99.90
46552;DHT22;32278;51.810;4.712;2022-09-29T04:52:55;9.10;99.90
46552;DHT22;32278;51.810;4.712;2022-09-29T04:55:20;9.20;99.90
46552;DHT22;32278;51.810;4.712;2022-09-29T04:57:46;9.30;99.90
46552;DHT22;32278;51.810;4.712;2022-09-29T05:00:13;9.20;99.90
46552;DHT22;32278;51.810;4.712;2022-09-29T05:02:40;9.00;99.90
46552;DHT22;32278;51.810;4.712;2022-09-29T05:05:06;8.90;99.90
46552;DHT22;32278;51.810;4.712;2022-09-29T05:07:36;8.80;99.90
46552;DHT22;32278;51.810;4.712;2022-09-29T05:10:03;8.90;99.90
46552;DHT22;32278;51.810;4.712;2022-09-29T05:12:29;9.00;99.90
46552;DHT22;32278;51.810;4.712;2022-09-29T05:14:55;9.00;99.90
46552;DHT22;32278;51.810;4.712;2022-09-29T05:17:20;8.90;99.90
46552;DHT22;32278;51.810;4.712;2022-09-29T05:19:46;8.90;99.90
46552;DHT22;32278;51.810;4.712;2022-09-29T05:22:11;8.90;99.90
46552;DHT22;32278;51.810;4.712;2022-09-29T05:24:37;8.90;99.90
46552;DHT22;32278;51.810;4.712;2022-09-29T05:27:03;8.80;99.90
46552;DHT22;32278;51.810;4.712;2022-09-29T05:29:28;8.90;99.90
46552;DHT22;32278;51.810;4.712;2022-09-29T05:31:54;8.80;99.90
46552;DHT22;32278;51.810;4.712;2022-09-29T05:34:20;8.80;99.90
46552;DHT22;32278;51.810;4.712;2022-09-29T05:36:45;8.80;99.90
46552;DHT22;32278;51.810;4.712;2022-09-29T05:39:11;8.80;99.90
46552;DHT22;32278;51.810;4.712;2022-09-29T05:41:37;8.80;99.90
46552;DHT22;32278;51.810;4.712;2022-09-29T05:44:02;8.80;99.90
46552;DHT22;32278;51.810;4.712;2022-09-29T05:46:28;8.80;99.90
46552;DHT22;32278;51.810;4.712;2022-09-29T05:48:54;8.80;99.90
46552;DHT22;32278;51.810;4.712;2022-09-29T05:51:22;8.80;99.90
46552;DHT22;32278;51.810;4.712;2022-09-29T05:53:48;8.90;99.90
46552;DHT22;32278;51.810;4.712;2022-09-29T05:56:16;8.80;99.90
46552;DHT22;32278;51.810;4.712;2022-09-29T05:58:43;8.90;99.90
46552;DHT22;32278;51.810;4.712;2022-09-29T06:01:11;8.80;99.90
46552;DHT22;32278;51.810;4.712;2022-09-29T06:03:37;8.70;99.90
46552;DHT22;32278;51.810;4.712;2022-09-29T06:06:08;8.70;99.90
46552;DHT22;32278;51.810;4.712;2022-09-29T06:08:34;8.80;99.90
46552;DHT22;32278;51.810;4.712;2022-09-29T06:11:04;8.90;99.90
46552;DHT22;32278;51.810;4.712;2022-09-29T06:13:31;9.10;99.90
46552;DHT22;32278;51.810;4.712;2022-09-29T06:16:00;9.00;99.90
46552;DHT22;32278;51.810;4.712;2022-09-29T06:18:26;9.00;99.90
46552;DHT22;32278;51.810;4.712;2022-09-29T06:20:51;9.00;99.90
46552;DHT22;32278;51.810;4.712;2022-09-29T06:23:17;9.00;99.90
46552;DHT22;32278;51.810;4.712;2022-09-29T06:25:42;9.20;99.90
46552;DHT22;32278;51.810;4.712;2022-09-29T06:28:08;9.20;99.90
46552;DHT22;32278;51.810;4.712;2022-09-29T06:30:33;9.20;99.90
46552;DHT22;32278;51.810;4.712;2022-09-29T06:32:59;9.20;99.90
46552;DHT22;32278;51.810;4.712;2022-09-29T06:35:24;9.20;99.90
46552;DHT22;32278;51.810;4.712;2022-09-29T06:38:08;9.20;99.90
46552;DHT22;32278;51.810;4.712;2022-09-29T06:40:34;9.20;99.90
46552;DHT22;32278;51.810;4.712;2022-09-29T06:42:59;9.30;99.90
46552;DHT22;32278;51.810;4.712;2022-09-29T06:45:25;9.30;99.90
46552;DHT22;32278;51.810;4.712;2022-09-29T06:47:57;9.50;99.90
46552;DHT22;32278;51.810;4.712;2022-09-29T06:50:22;9.50;99.90
46552;DHT22;32278;51.810;4.712;2022-09-29T06:52:48;9.60;99.90
46552;DHT22;32278;51.810;4.712;2022-09-29T06:55:14;9.70;99.90
46552;DHT22;32278;51.810;4.712;2022-09-29T06:57:40;9.70;99.90
46552;DHT22;32278;51.810;4.712;2022-09-29T07:00:06;9.80;99.90
46552;DHT22;32278;51.810;4.712;2022-09-29T07:02:32;9.90;99.90
46552;DHT22;32278;51.810;4.712;2022-09-29T07:04:57;10.00;99.90
46552;DHT22;32278;51.810;4.712;2022-09-29T07:07:23;10.00;99.90
46552;DHT22;32278;51.810;4.712;2022-09-29T07:09:48;10.10;99.90
46552;DHT22;32278;51.810;4.712;2022-09-29T07:12:14;10.10;99.90
46552;DHT22;32278;51.810;4.712;2022-09-29T07:14:39;10.20;99.90
46552;DHT22;32278;51.810;4.712;2022-09-29T07:17:05;10.20;99.90
46552;DHT22;32278;51.810;4.712;2022-09-29T07:19:30;10.30;99.90
46552;DHT22;32278;51.810;4.712;2022-09-29T07:21:56;10.40;99.90
46552;DHT22;32278;51.810;4.712;2022-09-29T07:24:22;10.40;99.90
46552;DHT22;32278;51.810;4.712;2022-09-29T07:26:49;10.50;99.90
46552;DHT22;32278;51.810;4.712;2022-09-29T07:29:15;10.50;99.90
46552;DHT22;32278;51.810;4.712;2022-09-29T07:31:40;10.50;99.90
46552;DHT22;32278;51.810;4.712;2022-09-29T07:34:06;10.70;99.90
46552;DHT22;32278;51.810;4.712;2022-09-29T07:36:31;10.70;99.90
46552;DHT22;32278;51.810;4.712;2022-09-29T07:38:57;10.70;99.90
46552;DHT22;32278;51.810;4.712;2022-09-29T07:41:23;10.60;99.90
46552;DHT22;32278;51.810;4.712;2022-09-29T07:43:49;10.70;99.90
46552;DHT22;32278;51.810;4.712;2022-09-29T07:46:14;10.80;99.90
46552;DHT22;32278;51.810;4.712;2022-09-29T07:48:40;11.00;99.90
46552;DHT22;32278;51.810;4.712;2022-09-29T07:51:15;11.10;99.90
46552;DHT22;32278;51.810;4.712;2022-09-29T07:53:41;11.20;99.90
46552;DHT22;32278;51.810;4.712;2022-09-29T07:56:12;11.20;99.90
46552;DHT22;32278;51.810;4.712;2022-09-29T07:58:38;11.20;99.90
46552;DHT22;32278;51.810;4.712;2022-09-29T08:01:06;11.40;99.90
46552;DHT22;32278;51.810;4.712;2022-09-29T08:03:38;11.50;99.90
46552;DHT22;32278;51.810;4.712;2022-09-29T08:06:05;11.60;99.90
46552;DHT22;32278;51.810;4.712;2022-09-29T08:08:31;11.80;99.90
46552;DHT22;32278;51.810;4.712;2022-09-29T08:11:04;11.90;99.90
46552;DHT22;32278;51.810;4.712;2022-09-29T08:13:30;11.90;99.90
46552;DHT22;32278;51.810;4.712;2022-09-29T08:16:00;12.30;99.90
46552;DHT22;32278;51.810;4.712;2022-09-29T08:18:30;12.80;99.90
46552;DHT22;32278;51.810;4.712;2022-09-29T08:20:56;13.10;99.90
46552;DHT22;32278;51.810;4.712;2022-09-29T08:23:22;12.70;99.90
46552;DHT22;32278;51.810;4.712;2022-09-29T08:25:48;13.10;99.90
46552;DHT22;32278;51.810;4.712;2022-09-29T08:28:14;13.70;99.90
46552;DHT22;32278;51.810;4.712;2022-09-29T08:30:40;13.90;99.90
46552;DHT22;32278;51.810;4.712;2022-09-29T08:33:05;13.70;99.90
46552;DHT22;32278;51.810;4.712;2022-09-29T08:35:36;13.10;99.90
46552;DHT22;32278;51.810;4.712;2022-09-29T08:38:02;13.60;99.90
46552;DHT22;32278;51.810;4.712;2022-09-29T08:40:29;13.50;99.90
46552;DHT22;32278;51.810;4.712;2022-09-29T08:43:29;13.90;99.90
46552;DHT22;32278;51.810;4.712;2022-09-29T08:46:01;13.90;99.90
46552;DHT22;32278;51.810;4.712;2022-09-29T08:48:35;14.10;99.90
46552;DHT22;32278;51.810;4.712;2022-09-29T08:51:03;13.40;99.90
46552;DHT22;32278;51.810;4.712;2022-09-29T08:53:33;12.80;99.90
46552;DHT22;32278;51.810;4.712;2022-09-29T08:56:05;12.90;99.90
46552;DHT22;32278;51.810;4.712;2022-09-29T08:58:33;12.70;99.90
46552;DHT22;32278;51.810;4.712;2022-09-29T09:01:02;13.00;99.90
46552;DHT22;32278;51.810;4.712;2022-09-29T09:07:31;13.40;99.90
46552;DHT22;32278;51.810;4.712;2022-09-29T09:15:12;13.50;99.90
46552;DHT22;32278;51.810;4.712;2022-09-29T09:17:55;13.40;99.90
46552;DHT22;32278;51.810;4.712;2022-09-29T09:25:37;13.00;99.90
46552;DHT22;32278;51.810;4.712;2022-09-29T09:28:15;13.10;99.90
46552;DHT22;32278;51.810;4.712;2022-09-29T09:30:57;12.90;99.90
46552;DHT22;32278;51.810;4.712;2022-09-29T09:33:33;12.90;99.90
46552;DHT22;32278;51.810;4.712;2022-09-29T09:36:14;12.80;99.90
46552;DHT22;32278;51.810;4.712;2022-09-29T09:39:02;12.70;99.90
46552;DHT22;32278;51.810;4.712;2022-09-29T09:41:29;12.60;99.90
46552;DHT22;32278;51.810;4.712;2022-09-29T09:44:02;12.60;99.90
46552;DHT22;32278;51.810;4.712;2022-09-29T09:46:43;12.80;99.90
46552;DHT22;32278;51.810;4.712;2022-09-29T09:49:22;13.00;99.90
46552;DHT22;32278;51.810;4.712;2022-09-29T09:52:08;13.10;99.90
46552;DHT22;32278;51.810;4.712;2022-09-29T09:54:38;13.00;99.90
46552;DHT22;32278;51.810;4.712;2022-09-29T10:02:24;12.80;99.90
46552;DHT22;32278;51.810;4.712;2022-09-29T10:04:51;12.80;99.90
46552;DHT22;32278;51.810;4.712;2022-09-29T10:07:22;12.80;99.90
46552;DHT22;32278;51.810;4.712;2022-09-29T10:09:48;13.00;99.90
46552;DHT22;32278;51.810;4.712;2022-09-29T10:12:16;13.20;99.90
46552;DHT22;32278;51.810;4.712;2022-09-29T10:15:19;13.30;99.90
46552;DHT22;32278;51.810;4.712;2022-09-29T10:17:54;13.30;99.90
46552;DHT22;32278;51.810;4.712;2022-09-29T10:20:35;13.30;99.90
46552;DHT22;32278;51.810;4.712;2022-09-29T10:23:25;13.30;99.90
46552;DHT22;32278;51.810;4.712;2022-09-29T10:26:11;13.30;99.90
46552;DHT22;32278;51.810;4.712;2022-09-29T10:28:51;13.40;99.90
46552;DHT22;32278;51.810;4.712;2022-09-29T10:31:21;13.70;99.90
46552;DHT22;32278;51.810;4.712;2022-09-29T10:33:59;13.70;99.90
46552;DHT22;32278;51.810;4.712;2022-09-29T10:36:33;13.80;99.90
46552;DHT22;32278;51.810;4.712;2022-09-29T10:39:41;13.90;99.90
46552;DHT22;32278;51.810;4.712;2022-09-29T10:42:37;13.90;99.90
46552;DHT22;32278;51.810;4.712;2022-09-29T10:47:29;14.20;99.90
46552;DHT22;32278;51.810;4.712;2022-09-29T10:52:47;14.00;99.90
46552;DHT22;32278;51.810;4.712;2022-09-29T10:55:17;14.10;99.90
46552;DHT22;32278;51.810;4.712;2022-09-29T10:57:44;14.10;99.90
46552;DHT22;32278;51.810;4.712;2022-09-29T11:00:37;14.30;99.90
46552;DHT22;32278;51.810;4.712;2022-09-29T11:03:18;14.40;99.90
46552;DHT22;32278;51.810;4.712;2022-09-29T11:06:07;14.60;99.90
46552;DHT22;32278;51.810;4.712;2022-09-29T11:08:59;14.60;99.90
46552;DHT22;32278;51.810;4.712;2022-09-29T11:11:28;14.40;99.90
46552;DHT22;32278;51.810;4.712;2022-09-29T11:13:54;14.30;99.90
46552;DHT22;32278;51.810;4.712;2022-09-29T11:16:28;13.90;99.90
46552;DHT22;32278;51.810;4.712;2022-09-29T11:18:58;13.80;99.90
46552;DHT22;32278;51.810;4.712;2022-09-29T11:22:00;13.70;99.90
46552;DHT22;32278;51.810;4.712;2022-09-29T11:27:13;14.60;99.90
46552;DHT22;32278;51.810;4.712;2022-09-29T11:35:26;15.50;99.90
46552;DHT22;32278;51.810;4.712;2022-09-29T11:41:02;16.70;99.90
46552;DHT22;32278;51.810;4.712;2022-09-29T11:52:17;17.40;99.90
46552;DHT22;32278;51.810;4.712;2022-09-29T12:00:11;18.20;99.90
46552;DHT22;32278;51.810;4.712;2022-09-29T12:03:20;18.50;99.90
46552;DHT22;32278;51.810;4.712;2022-09-29T12:06:00;18.60;99.90
46552;DHT22;32278;51.810;4.712;2022-09-29T12:08:59;18.40;99.90
46552;DHT22;32278;51.810;4.712;2022-09-29T12:17:02;18.80;99.90
46552;DHT22;32278;51.810;4.712;2022-09-29T12:19:31;18.90;99.90
46552;DHT22;32278;51.810;4.712;2022-09-29T12:22:00;18.20;99.90
46552;DHT22;32278;51.810;4.712;2022-09-29T12:24:45;18.10;99.90
46552;DHT22;32278;51.810;4.712;2022-09-29T12:27:22;17.90;99.90
46552;DHT22;32278;51.810;4.712;2022-09-29T12:30:14;17.80;99.90
46552;DHT22;32278;51.810;4.712;2022-09-29T12:32:57;17.90;99.90
46552;DHT22;32278;51.810;4.712;2022-09-29T12:35:38;17.60;99.90
46552;DHT22;32278;51.810;4.712;2022-09-29T12:38:14;17.60;99.90
46552;DHT22;32278;51.810;4.712;2022-09-29T12:41:10;17.80;99.90
46552;DHT22;32278;51.810;4.712;2022-09-29T12:46:33;18.00;99.90
46552;DHT22;32278;51.810;4.712;2022-09-29T12:51:49;17.20;99.90
46552;DHT22;32278;51.810;4.712;2022-09-29T12:57:03;17.50;99.90
46552;DHT22;32278;51.810;4.712;2022-09-29T13:00:03;17.90;99.90
46552;DHT22;32278;51.810;4.712;2022-09-29T13:08:23;17.40;99.90
46552;DHT22;32278;51.810;4.712;2022-09-29T13:11:28;17.90;99.90
46552;DHT22;32278;51.810;4.712;2022-09-29T13:17:32;18.30;99.90
46552;DHT22;32278;51.810;4.712;2022-09-29T13:23:08;17.50;99.90
46552;DHT22;32278;51.810;4.712;2022-09-29T13:25:56;17.90;99.90
46552;DHT22;32278;51.810;4.712;2022-09-29T13:28:31;18.00;99.90
46552;DHT22;32278;51.810;4.712;2022-09-29T13:31:01;18.30;99.90
46552;DHT22;32278;51.810;4.712;2022-09-29T13:33:28;18.40;99.90
46552;DHT22;32278;51.810;4.712;2022-09-29T13:35:54;18.20;99.90
46552;DHT22;32278;51.810;4.712;2022-09-29T13:38:34;17.70;99.90
46552;DHT22;32278;51.810;4.712;2022-09-29T13:49:01;16.00;99.90
46552;DHT22;32278;51.810;4.712;2022-09-29T13:51:50;15.60;99.90
46552;DHT22;32278;51.810;4.712;2022-09-29T14:02:37;15.30;99.90
46552;DHT22;32278;51.810;4.712;2022-09-29T14:05:05;15.20;99.90
46552;DHT22;32278;51.810;4.712;2022-09-29T14:13:06;15.40;99.90
46552;DHT22;32278;51.810;4.712;2022-09-29T14:15:45;15.40;99.90
46552;DHT22;32278;51.810;4.712;2022-09-29T14:18:34;15.40;99.90
46552;DHT22;32278;51.810;4.712;2022-09-29T14:21:04;15.30;99.90
46552;DHT22;32278;51.810;4.712;2022-09-29T14:26:43;15.80;99.90
46552;DHT22;32278;51.810;4.712;2022-09-29T14:29:23;15.80;99.90
46552;DHT22;32278;51.810;4.712;2022-09-29T14:31:53;16.00;99.90
46552;DHT22;32278;51.810;4.712;2022-09-29T14:34:21;16.00;99.90
46552;DHT22;32278;51.810;4.712;2022-09-29T14:36:51;15.90;99.90
46552;DHT22;32278;51.810;4.712;2022-09-29T14:39:18;15.70;99.90
46552;DHT22;32278;51.810;4.712;2022-09-29T14:41:46;15.50;99.90
46552;DHT22;32278;51.810;4.712;2022-09-29T14:44:23;15.30;99.90
46552;DHT22;32278;51.810;4.712;2022-09-29T14:50:21;15.30;99.90
46552;DHT22;32278;51.810;4.712;2022-09-29T14:58:43;15.00;99.90
46552;DHT22;32278;51.810;4.712;2022-09-29T15:01:29;15.00;99.90
46552;DHT22;32278;51.810;4.712;2022-09-29T15:06:52;15.30;99.90
46552;DHT22;32278;51.810;4.712;2022-09-29T15:09:18;15.30;99.90
46552;DHT22;32278;51.810;4.712;2022-09-29T15:11:49;15.20;99.90
46552;DHT22;32278;51.810;4.712;2022-09-29T15:14:22;15.20;99.90
46552;DHT22;32278;51.810;4.712;2022-09-29T15:27:02;15.50;99.90
46552;DHT22;32278;51.810;4.712;2022-09-29T15:29:28;15.20;99.90
46552;DHT22;32278;51.810;4.712;2022-09-29T15:31:54;15.00;99.90
46552;DHT22;32278;51.810;4.712;2022-09-29T15:34:22;15.00;99.90
46552;DHT22;32278;51.810;4.712;2022-09-29T15:36:54;15.00;99.90
46552;DHT22;32278;51.810;4.712;2022-09-29T15:42:02;15.00;99.90
46552;DHT22;32278;51.810;4.712;2022-09-29T15:44:29;15.00;99.90
46552;DHT22;32278;51.810;4.712;2022-09-29T15:46:57;15.00;99.90
46552;DHT22;32278;51.810;4.712;2022-09-29T15:49:24;14.90;99.90
46552;DHT22;32278;51.810;4.712;2022-09-29T15:51:57;15.00;99.90
46552;DHT22;32278;51.810;4.712;2022-09-29T15:54:25;15.00;99.90
46552;DHT22;32278;51.810;4.712;2022-09-29T15:56:50;15.10;99.90
46552;DHT22;32278;51.810;4.712;2022-09-29T15:59:41;15.20;99.90
46552;DHT22;32278;51.810;4.712;2022-09-29T16:02:16;14.90;99.90
46552;DHT22;32278;51.810;4.712;2022-09-29T16:04:46;14.80;99.90
46552;DHT22;32278;51.810;4.712;2022-09-29T16:07:23;14.80;99.90
46552;DHT22;32278;51.810;4.712;2022-09-29T16:09:52;14.70;99.90
46552;DHT22;32278;51.810;4.712;2022-09-29T16:12:21;14.70;99.90
46552;DHT22;32278;51.810;4.712;2022-09-29T16:14:47;14.70;99.90
46552;DHT22;32278;51.810;4.712;2022-09-29T16:17:17;14.70;99.90
46552;DHT22;32278;51.810;4.712;2022-09-29T16:19:44;14.70;99.90
46552;DHT22;32278;51.810;4.712;2022-09-29T16:22:18;14.70;99.90
46552;DHT22;32278;51.810;4.712;2022-09-29T16:25:06;14.60;99.90
46552;DHT22;32278;51.810;4.712;2022-09-29T16:27:57;14.60;99.90
46552;DHT22;32278;51.810;4.712;2022-09-29T16:30:36;14.60;99.90
46552;DHT22;32278;51.810;4.712;2022-09-29T16:33:14;14.70;99.90
46552;DHT22;32278;51.810;4.712;2022-09-29T16:38:18;14.70;99.90
46552;DHT22;32278;51.810;4.712;2022-09-29T16:40:45;14.80;99.90
46552;DHT22;32278;51.810;4.712;2022-09-29T16:43:26;14.70;99.90
46552;DHT22;32278;51.810;4.712;2022-09-29T16:45:54;14.80;99.90
46552;DHT22;32278;51.810;4.712;2022-09-29T16:48:22;14.90;99.90
46552;DHT22;32278;51.810;4.712;2022-09-29T16:50:53;14.90;99.90
46552;DHT22;32278;51.810;4.712;2022-09-29T16:53:25;14.90;99.90
46552;DHT22;32278;51.810;4.712;2022-09-29T16:55:55;14.90;99.90
46552;DHT22;32278;51.810;4.712;2022-09-29T16:58:21;15.00;99.90
46552;DHT22;32278;51.810;4.712;2022-09-29T17:00:47;14.90;99.90
46552;DHT22;32278;51.810;4.712;2022-09-29T17:03:13;14.90;99.90
46552;DHT22;32278;51.810;4.712;2022-09-29T17:05:41;14.80;99.90
46552;DHT22;32278;51.810;4.712;2022-09-29T17:08:20;14.80;99.90
46552;DHT22;32278;51.810;4.712;2022-09-29T17:10:49;14.80;99.90
46552;DHT22;32278;51.810;4.712;2022-09-29T17:13:16;14.70;99.90
46552;DHT22;32278;51.810;4.712;2022-09-29T17:15:44;14.70;99.90
46552;DHT22;32278;51.810;4.712;2022-09-29T17:18:11;14.70;99.90
46552;DHT22;32278;51.810;4.712;2022-09-29T17:20:37;14.60;99.90
46552;DHT22;32278;51.810;4.712;2022-09-29T17:23:03;14.60;99.90
46552;DHT22;32278;51.810;4.712;2022-09-29T17:25:30;14.40;99.90
46552;DHT22;32278;51.810;4.712;2022-09-29T17:27:55;14.30;99.90
46552;DHT22;32278;51.810;4.712;2022-09-29T17:30:38;14.20;99.90
46552;DHT22;32278;51.810;4.712;2022-09-29T17:33:04;14.10;99.90
46552;DHT22;32278;51.810;4.712;2022-09-29T17:35:39;14.10;99.90
46552;DHT22;32278;51.810;4.712;2022-09-29T17:38:05;14.00;99.90
46552;DHT22;32278;51.810;4.712;2022-09-29T17:40:36;13.90;99.90
46552;DHT22;32278;51.810;4.712;2022-09-29T17:43:07;13.80;99.90
46552;DHT22;32278;51.810;4.712;2022-09-29T17:45:33;13.70;99.90
46552;DHT22;32278;51.810;4.712;2022-09-29T17:48:00;13.70;99.90
46552;DHT22;32278;51.810;4.712;2022-09-29T17:50:30;13.60;99.90
46552;DHT22;32278;51.810;4.712;2022-09-29T17:52:57;13.60;99.90
46552;DHT22;32278;51.810;4.712;2022-09-29T17:55:26;13.50;99.90
46552;DHT22;32278;51.810;4.712;2022-09-29T17:57:52;13.40;99.90
46552;DHT22;32278;51.810;4.712;2022-09-29T18:00:21;13.30;99.90
46552;DHT22;32278;51.810;4.712;2022-09-29T18:02:48;13.20;99.90
46552;DHT22;32278;51.810;4.712;2022-09-29T18:05:15;13.20;99.90
46552;DHT22;32278;51.810;4.712;2022-09-29T18:07:47;13.00;99.90
46552;DHT22;32278;51.810;4.712;2022-09-29T18:10:23;13.00;99.90
46552;DHT22;32278;51.810;4.712;2022-09-29T18:12:50;12.90;99.90
46552;DHT22;32278;51.810;4.712;2022-09-29T18:15:15;12.80;99.90
46552;DHT22;32278;51.810;4.712;2022-09-29T18:17:42;12.90;99.90
46552;DHT22;32278;51.810;4.712;2022-09-29T18:20:11;12.70;99.90
46552;DHT22;32278;51.810;4.712;2022-09-29T18:22:39;12.50;99.90
46552;DHT22;32278;51.810;4.712;2022-09-29T18:25:05;12.60;99.90
46552;DHT22;32278;51.810;4.712;2022-09-29T18:27:32;12.60;99.90
46552;DHT22;32278;51.810;4.712;2022-09-29T18:29:57;12.50;99.90